Time;durP1;ratioP1;P1;durP2;ratioP2;P2;SDS_P1;SDS_P2;PMS_P1;PMS_P2;Temp;Humidity;BMP_temperature;BMP_pressure;BME280_temperature;BME280_humidity;BME280_pressure;Samples;Min_cycle;Max_cycle;Signal;HPM_P1;HPM_P2
2022/01/28 00:01:36;;;;;;;30.63;3.60;;;;;;;;;;4995056;28;20038;-44
2022/01/28 00:04:12;;;;;;;24.42;2.97;;;;;;;;;;5019972;28;20421;-44
2022/01/28 00:06:40;;;;;;;23.42;3.20;;;;;;;;;;5018446;28;20483;-43
2022/01/28 00:09:07;;;;;;;33.03;3.88;;;;;;;;;;5017934;28;20112;-44
2022/01/28 00:11:34;;;;;;;33.63;4.43;;;;;;;;;;5020209;28;20460;-44
2022/01/28 00:14:18;;;;;;;37.38;4.75;;;;;;;;;;5019631;28;20045;-44
2022/01/28 00:17:18;;;;;;;20.15;3.10;;;;;;;;;;5031823;28;20034;-44
2022/01/28 00:38:54;;;;;;;33.33;4.45;;;;;;;;;;4977517;28;20052;-41
2022/01/28 00:41:22;;;;;;;31.25;4.13;;;;;;;;;;5019374;28;20034;-40
2022/01/28 00:43:49;;;;;;;30.00;3.53;;;;;;;;;;5018006;28;20033;-40
2022/01/28 00:46:16;;;;;;;27.50;3.67;;;;;;;;;;5021087;28;20033;-41
2022/01/28 00:48:43;;;;;;;19.92;3.22;;;;;;;;;;5020023;28;20079;-42
2022/01/28 00:51:10;;;;;;;22.70;3.45;;;;;;;;;;5029676;28;20025;-42
2022/01/28 00:53:37;;;;;;;28.27;3.17;;;;;;;;;;5025821;28;20505;-42
2022/01/28 00:56:04;;;;;;;29.10;3.08;;;;;;;;;;5017212;28;20038;-43
2022/01/28 00:58:31;;;;;;;25.10;2.55;;;;;;;;;;5010666;28;20038;-43
2022/01/28 01:00:58;;;;;;;20.23;2.85;;;;;;;;;;5011794;28;20051;-44
2022/01/28 01:03:25;;;;;;;16.17;2.47;;;;;;;;;;5011384;28;20030;-42
2022/01/28 01:05:52;;;;;;;24.88;3.10;;;;;;;;;;5011445;28;20506;-42
2022/01/28 01:08:19;;;;;;;18.58;2.28;;;;;;;;;;5011747;28;20502;-43
2022/01/28 01:10:47;;;;;;;18.23;2.60;;;;;;;;;;4993575;28;20145;-43
2022/01/28 01:13:14;;;;;;;28.30;2.85;;;;;;;;;;5011620;28;20052;-43
2022/01/28 01:15:44;;;;;;;22.92;2.33;;;;;;;;;;5011285;28;20093;-42
2022/01/28 01:18:19;;;;;;;28.10;2.83;;;;;;;;;;5017149;28;20037;-42
2022/01/28 01:23:22;;;;;;;14.07;2.30;;;;;;;;;;5017528;28;20033;-44
2022/01/28 01:26:05;;;;;;;14.00;2.38;;;;;;;;;;5028913;28;20073;-51
2022/01/28 01:28:35;;;;;;;10.10;1.90;;;;;;;;;;5024590;28;20080;-43
2022/01/28 01:31:05;;;;;;;12.68;1.98;;;;;;;;;;5028689;28;20141;-43
2022/01/28 01:33:41;;;;;;;14.45;1.92;;;;;;;;;;5029273;28;20037;-43
2022/01/28 01:36:08;;;;;;;18.05;2.05;;;;;;;;;;5024880;28;20041;-45
2022/01/28 01:38:38;;;;;;;13.00;1.73;;;;;;;;;;5010337;28;20453;-45
2022/01/28 01:41:10;;;;;;;13.95;1.80;;;;;;;;;;5028049;28;20044;-44
2022/01/28 01:43:51;;;;;;;;;;;;;;;;;;5025412;28;20475;-43
2022/01/28 01:54:22;;;;;;;16.90;1.45;;;;;;;;;;5027834;28;20041;-41
2022/01/28 01:56:49;;;;;;;11.27;1.20;;;;;;;;;;5024103;28;20039;-42
2022/01/28 01:59:16;;;;;;;24.38;1.63;;;;;;;;;;5026413;28;20025;-42
2022/01/28 02:01:44;;;;;;;10.35;1.80;;;;;;;;;;5025043;28;20043;-42
2022/01/28 02:04:11;;;;;;;16.83;1.58;;;;;;;;;;5027829;28;20018;-42
2022/01/28 02:06:40;;;;;;;13.20;2.05;;;;;;;;;;5027546;28;20037;-43
2022/01/28 02:09:07;;;;;;;11.02;1.95;;;;;;;;;;5028438;28;20033;-43
2022/01/28 02:11:35;;;;;;;15.57;1.75;;;;;;;;;;5026167;28;20064;-43
2022/01/28 02:14:02;;;;;;;10.98;1.98;;;;;;;;;;5008837;28;20443;-43
2022/01/28 02:16:30;;;;;;;10.55;1.73;;;;;;;;;;5028072;28;20118;-42
2022/01/28 02:18:57;;;;;;;12.82;1.55;;;;;;;;;;5027302;28;20395;-42
2022/01/28 02:21:24;;;;;;;9.75;1.67;;;;;;;;;;5028126;28;20073;-42
2022/01/28 02:23:58;;;;;;;16.35;1.92;;;;;;;;;;5026088;28;20030;-42
2022/01/28 02:26:25;;;;;;;6.25;1.60;;;;;;;;;;5025928;28;20029;-43
2022/01/28 02:28:56;;;;;;;10.93;1.85;;;;;;;;;;5027625;28;20030;-42
2022/01/28 02:31:26;;;;;;;16.75;1.75;;;;;;;;;;5027442;28;20056;-43
2022/01/28 02:33:56;;;;;;;11.63;1.55;;;;;;;;;;5027047;28;20047;-42
2022/01/28 02:36:25;;;;;;;7.25;1.52;;;;;;;;;;5026280;28;20029;-43
2022/01/28 02:38:53;;;;;;;12.63;1.45;;;;;;;;;;5023437;28;20056;-43
2022/01/28 02:41:22;;;;;;;8.57;1.23;;;;;;;;;;5022777;28;20025;-42
2022/01/28 02:44:42;;;;;;;10.23;1.38;;;;;;;;;;5024826;28;20030;-41
2022/01/28 02:46:52;;;;;;;5.85;1.20;;;;;;;;;;5015289;28;20038;-42
2022/01/28 02:49:19;;;;;;;9.63;1.35;;;;;;;;;;5008037;28;20594;-44
2022/01/28 02:51:47;;;;;;;9.32;1.10;;;;;;;;;;5024388;28;20044;-43
2022/01/28 02:54:16;;;;;;;5.10;0.88;;;;;;;;;;5024163;28;20411;-43
2022/01/28 02:56:59;;;;;;;8.32;1.17;;;;;;;;;;5024899;28;20033;-43
2022/01/28 02:59:25;;;;;;;;;;;;;;;;;;5024490;28;20124;-42
2022/01/28 03:01:52;;;;;;;10.43;1.15;;;;;;;;;;5027344;28;20282;-42
2022/01/28 03:04:49;;;;;;;4.13;1.17;;;;;;;;;;5029501;28;20069;-43
2022/01/28 03:07:06;;;;;;;5.95;1.17;;;;;;;;;;5025364;28;20049;-42
2022/01/28 03:09:50;;;;;;;12.75;1.45;;;;;;;;;;5029532;28;20064;-42
2022/01/28 03:12:20;;;;;;;10.40;1.63;;;;;;;;;;5029015;28;20038;-41
2022/01/28 03:17:50;;;;;;;9.52;1.30;;;;;;;;;;5027829;28;20037;-42
2022/01/28 03:20:31;;;;;;;10.60;1.73;;;;;;;;;;5026361;28;20041;-42
2022/01/28 03:22:52;;;;;;;17.52;1.92;;;;;;;;;;5026452;28;20045;-42
2022/01/28 03:25:19;;;;;;;8.45;1.30;;;;;;;;;;5025914;28;20032;-41
2022/01/28 03:27:55;;;;;;;10.90;1.10;;;;;;;;;;5009802;28;20060;-42
2022/01/28 03:30:23;;;;;;;6.70;1.10;;;;;;;;;;5027234;28;20036;-43
2022/01/28 03:32:50;;;;;;;11.40;1.55;;;;;;;;;;5025704;28;20036;-41
2022/01/28 03:35:19;;;;;;;5.32;1.05;;;;;;;;;;5029237;28;20030;-43
2022/01/28 03:37:46;;;;;;;6.07;1.30;;;;;;;;;;5010672;28;20033;-42
2022/01/28 03:40:18;;;;;;;4.45;1.13;;;;;;;;;;5027538;28;20391;-42
2022/01/28 03:42:45;;;;;;;10.93;1.43;;;;;;;;;;5022262;28;20037;-41
2022/01/28 03:45:12;;;;;;;5.95;0.93;;;;;;;;;;5019269;28;20288;-44
2022/01/28 03:47:39;;;;;;;8.88;1.10;;;;;;;;;;5028676;28;20036;-43
2022/01/28 03:50:06;;;;;;;6.45;1.10;;;;;;;;;;5027328;28;20029;-44
2022/01/28 03:52:33;;;;;;;10.55;1.30;;;;;;;;;;5028669;28;20037;-41
2022/01/28 03:55:00;;;;;;;12.98;1.55;;;;;;;;;;5026732;28;20074;-41
2022/01/28 03:57:27;;;;;;;7.80;1.30;;;;;;;;;;5028235;28;20744;-43
2022/01/28 03:59:54;;;;;;;14.13;1.67;;;;;;;;;;5023391;28;20628;-42
2022/01/28 04:02:26;;;;;;;9.45;1.15;;;;;;;;;;5024908;28;20022;-41
2022/01/28 04:12:55;;;;;;;8.27;1.10;;;;;;;;;;5025201;28;20047;-42
2022/01/28 04:18:07;;;;;;;5.95;1.02;;;;;;;;;;5011234;28;20044;-43
2022/01/28 04:20:34;;;;;;;5.95;1.08;;;;;;;;;;5019596;28;20124;-43
2022/01/28 04:23:01;;;;;;;4.95;1.10;;;;;;;;;;5000556;28;20364;-42
2022/01/28 04:25:28;;;;;;;3.45;0.68;;;;;;;;;;5020067;28;20032;-42
2022/01/28 04:27:55;;;;;;;5.53;0.98;;;;;;;;;;5024241;28;20546;-41
2022/01/28 04:30:22;;;;;;;5.10;0.80;;;;;;;;;;5021151;28;20029;-41
2022/01/28 04:32:51;;;;;;;4.53;1.35;;;;;;;;;;5029599;28;20135;-42
2022/01/28 04:35:18;;;;;;;10.02;1.10;;;;;;;;;;5025396;28;20500;-43
2022/01/28 04:40:38;;;;;;;7.22;1.23;;;;;;;;;;5000042;28;20041;-41
2022/01/28 04:53:32;;;;;;;8.63;1.20;;;;;;;;;;5031459;28;20038;-41
2022/01/28 04:56:11;;;;;;;10.65;1.20;;;;;;;;;;5030702;28;20044;-41
2022/01/28 05:11:59;;;;;;;3.20;1.00;;;;;;;;;;5031444;28;20033;-41
2022/01/28 05:27:26;;;;;;;5.78;0.95;;;;;;;;;;5031257;28;20061;-41
2022/01/28 05:29:54;;;;;;;4.35;1.02;;;;;;;;;;5030444;28;20021;-41
2022/01/28 05:32:21;;;;;;;7.45;1.08;;;;;;;;;;5031300;28;20032;-41
2022/01/28 05:34:48;;;;;;;10.90;1.48;;;;;;;;;;5030621;28;20041;-41
2022/01/28 05:37:15;;;;;;;10.80;1.50;;;;;;;;;;5030505;28;20037;-42
2022/01/28 05:39:42;;;;;;;5.72;1.30;;;;;;;;;;5030537;28;20502;-41
2022/01/28 05:42:09;;;;;;;9.27;1.00;;;;;;;;;;5030241;28;20079;-41
2022/01/28 05:44:36;;;;;;;7.13;1.20;;;;;;;;;;5030779;28;20029;-41
2022/01/28 05:47:03;;;;;;;7.80;1.30;;;;;;;;;;5031054;28;20033;-41
2022/01/28 05:49:31;;;;;;;6.93;1.20;;;;;;;;;;5030185;28;20034;-41
2022/01/28 05:51:58;;;;;;;7.55;1.27;;;;;;;;;;5030583;28;20041;-42
2022/01/28 05:54:25;;;;;;;6.65;1.13;;;;;;;;;;5030001;28;20506;-41
2022/01/28 05:56:52;;;;;;;3.17;0.90;;;;;;;;;;5031105;28;20037;-41
2022/01/28 05:59:19;;;;;;;3.55;0.95;;;;;;;;;;5030340;28;20033;-43
2022/01/28 06:01:46;;;;;;;5.03;0.70;;;;;;;;;;5030205;28;20032;-41
2022/01/28 06:04:15;;;;;;;4.18;0.98;;;;;;;;;;5030367;28;20025;-41
2022/01/28 06:06:42;;;;;;;3.05;0.95;;;;;;;;;;5029843;28;20044;-41
2022/01/28 06:09:09;;;;;;;3.00;1.02;;;;;;;;;;5030228;28;20037;-41
2022/01/28 06:11:38;;;;;;;5.75;1.05;;;;;;;;;;5030146;28;20136;-41
2022/01/28 06:14:05;;;;;;;6.68;1.10;;;;;;;;;;5030044;28;20088;-42
2022/01/28 06:16:32;;;;;;;5.25;1.15;;;;;;;;;;5030652;28;20038;-42
2022/01/28 06:18:59;;;;;;;6.75;1.00;;;;;;;;;;5030100;28;20656;-41
2022/01/28 06:21:26;;;;;;;6.57;0.98;;;;;;;;;;5030025;28;20581;-41
2022/01/28 06:23:53;;;;;;;4.63;0.80;;;;;;;;;;5030106;28;20112;-41
2022/01/28 06:26:20;;;;;;;3.45;0.90;;;;;;;;;;5028059;28;20037;-41
2022/01/28 06:28:47;;;;;;;7.03;0.98;;;;;;;;;;5030001;28;20507;-42
2022/01/28 06:31:14;;;;;;;7.45;1.20;;;;;;;;;;5029978;28;20033;-42
2022/01/28 06:33:41;;;;;;;4.72;1.00;;;;;;;;;;5030038;28;20411;-41
2022/01/28 06:36:08;;;;;;;4.82;1.00;;;;;;;;;;5032270;28;20033;-41
2022/01/28 06:38:35;;;;;;;27.40;2.85;;;;;;;;;;5033713;28;20031;-42
2022/01/28 06:41:02;;;;;;;27.55;3.20;;;;;;;;;;5034773;28;20049;-41
2022/01/28 06:43:29;;;;;;;17.33;2.00;;;;;;;;;;5033544;28;20045;-41
2022/01/28 06:45:56;;;;;;;14.27;2.00;;;;;;;;;;5033654;28;20119;-42
2022/01/28 06:48:23;;;;;;;8.57;1.63;;;;;;;;;;5033486;28;20395;-42
2022/01/28 06:50:50;;;;;;;8.85;1.30;;;;;;;;;;5034300;28;20116;-41
2022/01/28 06:53:17;;;;;;;11.80;1.60;;;;;;;;;;5033479;28;20031;-41
2022/01/28 06:55:44;;;;;;;5.38;1.20;;;;;;;;;;5033579;28;20026;-41
2022/01/28 06:58:12;;;;;;;7.32;1.40;;;;;;;;;;5015312;28;20061;-42
2022/01/28 07:00:40;;;;;;;8.15;1.30;;;;;;;;;;5033666;28;20041;-41
2022/01/28 07:03:08;;;;;;;8.32;1.80;;;;;;;;;;5033431;28;20079;-41
2022/01/28 07:05:35;;;;;;;6.63;1.70;;;;;;;;;;5033451;28;20067;-41
2022/01/28 07:08:02;;;;;;;7.72;1.58;;;;;;;;;;5032894;28;20462;-41
2022/01/28 07:10:29;;;;;;;5.75;1.48;;;;;;;;;;5033329;28;20091;-41
2022/01/28 07:12:56;;;;;;;6.97;1.48;;;;;;;;;;5032811;28;20061;-41
2022/01/28 07:15:25;;;;;;;5.03;1.52;;;;;;;;;;5032953;28;20057;-41
2022/01/28 07:18:00;;;;;;;6.93;1.48;;;;;;;;;;5033776;28;20041;-41
2022/01/28 07:20:29;;;;;;;6.10;1.67;;;;;;;;;;5032653;28;20365;-41
2022/01/28 07:22:56;;;;;;;9.68;2.17;;;;;;;;;;5033347;28;20065;-41
2022/01/28 07:25:23;;;;;;;4.63;1.40;;;;;;;;;;5032837;28;20025;-41
2022/01/28 07:27:50;;;;;;;5.10;1.55;;;;;;;;;;5032808;28;20034;-41
2022/01/28 07:30:17;;;;;;;6.45;1.80;;;;;;;;;;5032619;28;20025;-41
2022/01/28 07:32:44;;;;;;;6.30;1.42;;;;;;;;;;5033430;28;20038;-41
2022/01/28 07:35:11;;;;;;;6.53;1.80;;;;;;;;;;5032960;28;20037;-41
2022/01/28 07:37:38;;;;;;;5.78;1.80;;;;;;;;;;5028032;28;20156;-41
2022/01/28 07:40:06;;;;;;;5.10;1.77;;;;;;;;;;5032789;28;20037;-41
2022/01/28 07:42:35;;;;;;;6.45;2.00;;;;;;;;;;5032244;28;20107;-41
2022/01/28 07:45:03;;;;;;;3.85;1.40;;;;;;;;;;5033008;28;20039;-41
2022/01/28 07:47:30;;;;;;;5.18;1.63;;;;;;;;;;5033618;28;20423;-41
2022/01/28 07:49:57;;;;;;;7.18;2.30;;;;;;;;;;5032277;28;20491;-41
2022/01/28 07:52:24;;;;;;;7.78;1.73;;;;;;;;;;5032610;28;20380;-41
2022/01/28 07:54:51;;;;;;;5.75;1.75;;;;;;;;;;5032101;28;20025;-41
2022/01/28 07:57:18;;;;;;;6.40;1.33;;;;;;;;;;5033049;28;20154;-41
2022/01/28 07:59:45;;;;;;;6.80;1.38;;;;;;;;;;5032545;28;20037;-41
2022/01/28 08:02:13;;;;;;;3.15;0.90;;;;;;;;;;5031893;28;20127;-41
2022/01/28 08:04:40;;;;;;;4.18;1.20;;;;;;;;;;5032752;28;20041;-41
2022/01/28 08:07:07;;;;;;;4.88;1.00;;;;;;;;;;5031969;28;20034;-42
2022/01/28 08:09:35;;;;;;;5.22;1.25;;;;;;;;;;5032083;28;20029;-41
2022/01/28 08:12:02;;;;;;;5.88;1.20;;;;;;;;;;5032360;28;20442;-41
2022/01/28 08:14:32;;;;;;;6.82;1.40;;;;;;;;;;5031459;28;20132;-41
2022/01/28 08:17:00;;;;;;;5.60;1.30;;;;;;;;;;5029019;28;20041;-41
2022/01/28 08:19:27;;;;;;;5.60;1.27;;;;;;;;;;5031235;28;20541;-41
2022/01/28 08:21:54;;;;;;;5.68;1.40;;;;;;;;;;5031472;28;20045;-41
2022/01/28 08:24:21;;;;;;;5.15;1.25;;;;;;;;;;5028649;28;20455;-41
2022/01/28 08:26:48;;;;;;;5.43;1.30;;;;;;;;;;5030846;28;20025;-41
2022/01/28 08:29:16;;;;;;;7.45;1.70;;;;;;;;;;5026647;28;20106;-41
2022/01/28 08:31:43;;;;;;;3.58;1.20;;;;;;;;;;5032231;28;20403;-41
2022/01/28 08:34:10;;;;;;;6.88;1.25;;;;;;;;;;5030980;28;20592;-41
2022/01/28 08:36:37;;;;;;;7.15;1.60;;;;;;;;;;5030953;28;20383;-41
2022/01/28 08:39:06;;;;;;;3.97;1.10;;;;;;;;;;5031532;28;20483;-41
2022/01/28 08:41:35;;;;;;;4.00;0.85;;;;;;;;;;5030709;28;20118;-41
2022/01/28 08:44:02;;;;;;;5.57;1.20;;;;;;;;;;5026448;28;20044;-43
2022/01/28 08:46:29;;;;;;;3.45;1.00;;;;;;;;;;5031881;28;20036;-41
2022/01/28 08:48:56;;;;;;;7.70;1.75;;;;;;;;;;5030906;28;20041;-42
2022/01/28 08:51:24;;;;;;;5.38;1.30;;;;;;;;;;5030875;28;20021;-43
2022/01/28 08:53:51;;;;;;;8.13;1.55;;;;;;;;;;5031403;28;20591;-42
2022/01/28 08:56:18;;;;;;;4.80;1.15;;;;;;;;;;5031198;28;20115;-42
2022/01/28 08:58:45;;;;;;;7.75;1.30;;;;;;;;;;5023875;28;20094;-42
2022/01/28 09:04:28;;;;;;;6.82;1.58;;;;;;;;;;5013452;28;20141;-42
2022/01/28 09:10:25;;;;;;;7.65;1.33;;;;;;;;;;5008209;28;20123;-42
2022/01/28 09:15:31;;;;;;;9.90;1.17;;;;;;;;;;5011227;28;20073;-42
2022/01/28 09:17:59;;;;;;;10.73;0.98;;;;;;;;;;5011455;28;20113;-42
2022/01/28 09:20:26;;;;;;;6.25;1.20;;;;;;;;;;5010675;28;20108;-42
2022/01/28 09:22:53;;;;;;;6.30;1.08;;;;;;;;;;5010642;28;20029;-42
2022/01/28 09:25:20;;;;;;;8.20;1.30;;;;;;;;;;5010867;28;20526;-42
2022/01/28 09:27:47;;;;;;;4.32;1.20;;;;;;;;;;5010403;28;20042;-42
2022/01/28 09:30:14;;;;;;;6.40;1.10;;;;;;;;;;5010687;28;20112;-42
2022/01/28 09:32:41;;;;;;;4.70;0.90;;;;;;;;;;5011302;28;20080;-42
2022/01/28 09:35:08;;;;;;;7.63;1.08;;;;;;;;;;5010596;28;20100;-42
2022/01/28 09:37:35;;;;;;;6.68;1.25;;;;;;;;;;5010365;28;20037;-42
2022/01/28 09:40:04;;;;;;;5.47;0.95;;;;;;;;;;5010648;28;20061;-42
2022/01/28 09:42:35;;;;;;;7.43;1.20;;;;;;;;;;5010513;28;20033;-42
2022/01/28 09:45:03;;;;;;;8.65;1.20;;;;;;;;;;5010840;28;20052;-42
2022/01/28 09:47:31;;;;;;;7.00;1.13;;;;;;;;;;5010982;28;20042;-42
2022/01/28 09:49:59;;;;;;;9.70;1.08;;;;;;;;;;5010414;28;20029;-42
2022/01/28 09:52:26;;;;;;;8.75;1.33;;;;;;;;;;5010419;28;20034;-42
2022/01/28 09:54:53;;;;;;;7.97;1.40;;;;;;;;;;5010361;28;20030;-42
2022/01/28 09:57:20;;;;;;;9.45;1.40;;;;;;;;;;5011017;28;20053;-42
2022/01/28 09:59:48;;;;;;;5.30;1.02;;;;;;;;;;5010235;28;20116;-42
2022/01/28 10:02:15;;;;;;;6.95;0.80;;;;;;;;;;5010295;28;20046;-42
2022/01/28 10:04:43;;;;;;;5.72;1.00;;;;;;;;;;5010252;28;20042;-42
2022/01/28 10:07:16;;;;;;;9.98;1.30;;;;;;;;;;5010249;28;20431;-42
2022/01/28 10:10:01;;;;;;;7.88;1.10;;;;;;;;;;5010393;28;20084;-42
2022/01/28 10:12:40;;;;;;;9.93;1.50;;;;;;;;;;5007627;28;20038;-42
2022/01/28 10:15:27;;;;;;;8.88;1.15;;;;;;;;;;5014398;28;20121;-42
2022/01/28 10:17:54;;;;;;;12.80;1.30;;;;;;;;;;5014519;28;20037;-42
2022/01/28 10:20:22;;;;;;;12.70;1.50;;;;;;;;;;5013954;28;20085;-42
2022/01/28 10:22:54;;;;;;;6.90;1.20;;;;;;;;;;5014109;28;20502;-42
2022/01/28 10:25:27;;;;;;;3.88;1.10;;;;;;;;;;5014309;28;20423;-42
2022/01/28 10:27:58;;;;;;;6.35;1.17;;;;;;;;;;5013817;28;20439;-42
2022/01/28 10:30:25;;;;;;;3.78;0.90;;;;;;;;;;5013950;28;20025;-42
2022/01/28 10:33:12;;;;;;;5.22;1.02;;;;;;;;;;5014052;28;20092;-42
2022/01/28 10:35:39;;;;;;;10.48;1.20;;;;;;;;;;5004899;28;20030;-42
2022/01/28 10:38:07;;;;;;;7.30;1.00;;;;;;;;;;5014132;28;20104;-42
2022/01/28 10:40:35;;;;;;;11.68;1.50;;;;;;;;;;5014369;28;20040;-41
2022/01/28 10:43:02;;;;;;;8.80;1.50;;;;;;;;;;5013413;28;20030;-42
2022/01/28 10:45:31;;;;;;;8.93;1.10;;;;;;;;;;5013805;28;20798;-42
2022/01/28 10:48:00;;;;;;;4.70;0.85;;;;;;;;;;5009687;28;20487;-41
2022/01/28 10:50:29;;;;;;;7.78;1.23;;;;;;;;;;5013341;28;20034;-42
2022/01/28 10:53:05;;;;;;;11.73;1.00;;;;;;;;;;5013222;28;20053;-41
2022/01/28 10:55:33;;;;;;;10.45;1.60;;;;;;;;;;5013709;28;20038;-41
2022/01/28 10:58:01;;;;;;;8.20;1.08;;;;;;;;;;5013652;28;20025;-41
2022/01/28 11:00:30;;;;;;;8.98;1.20;;;;;;;;;;5013658;28;20056;-41
2022/01/28 11:02:59;;;;;;;4.65;0.82;;;;;;;;;;5013610;28;20029;-42
2022/01/28 11:05:28;;;;;;;7.32;1.25;;;;;;;;;;5013292;28;20073;-41
2022/01/28 11:07:56;;;;;;;8.32;1.25;;;;;;;;;;5004448;28;20380;-41
2022/01/28 11:10:23;;;;;;;5.32;1.00;;;;;;;;;;5013645;28;20073;-41
2022/01/28 11:12:52;;;;;;;4.03;0.80;;;;;;;;;;5012908;28;20084;-42
2022/01/28 11:15:20;;;;;;;6.70;1.40;;;;;;;;;;5012907;28;20091;-41
2022/01/28 11:17:50;;;;;;;8.07;1.30;;;;;;;;;;5011443;28;20042;-41
2022/01/28 11:20:21;;;;;;;3.85;1.42;;;;;;;;;;5013113;28;20420;-41
2022/01/28 11:23:07;;;;;;;4.78;1.00;;;;;;;;;;5012522;28;20447;-41
2022/01/28 11:25:40;;;;;;;7.55;1.77;;;;;;;;;;5008963;28;20061;-41
2022/01/28 11:28:08;;;;;;;6.80;1.63;;;;;;;;;;5012799;28;20100;-42
2022/01/28 11:30:36;;;;;;;7.57;1.38;;;;;;;;;;5012768;28;20399;-41
2022/01/28 11:33:08;;;;;;;4.80;1.20;;;;;;;;;;5013241;28;20397;-41
2022/01/28 11:35:40;;;;;;;8.57;1.42;;;;;;;;;;5012844;28;20132;-43
2022/01/28 11:38:33;;;;;;;3.55;1.25;;;;;;;;;;5012639;28;20030;-41
2022/01/28 11:41:10;;;;;;;8.93;1.25;;;;;;;;;;5010193;28;20038;-41
2022/01/28 11:43:48;;;;;;;4.05;0.98;;;;;;;;;;5012663;28;20034;-42
2022/01/28 11:46:19;;;;;;;10.10;1.42;;;;;;;;;;5013044;28;20480;-42
2022/01/28 11:48:58;;;;;;;9.55;1.30;;;;;;;;;;5012405;28;20117;-42
2022/01/28 11:51:35;;;;;;;9.50;1.05;;;;;;;;;;5012397;28;20056;-41
2022/01/28 11:54:04;;;;;;;5.97;1.17;;;;;;;;;;5009043;28;20100;-42
2022/01/28 11:56:32;;;;;;;3.92;1.10;;;;;;;;;;5012864;28;20095;-42
2022/01/28 11:59:03;;;;;;;6.55;1.20;;;;;;;;;;5012442;28;20029;-42
2022/01/28 12:01:51;;;;;;;9.68;1.40;;;;;;;;;;5011880;28;20030;-41
2022/01/28 12:04:27;;;;;;;9.98;1.63;;;;;;;;;;4994481;28;20403;-42
2022/01/28 12:06:57;;;;;;;4.75;1.02;;;;;;;;;;5004034;28;20025;-42
2022/01/28 12:09:24;;;;;;;7.35;1.50;;;;;;;;;;5012126;28;20109;-41
2022/01/28 12:11:51;;;;;;;11.10;1.33;;;;;;;;;;5011734;28;20843;-41
2022/01/28 12:14:19;;;;;;;8.07;1.15;;;;;;;;;;5011915;28;20117;-42
2022/01/28 12:16:47;;;;;;;12.38;1.42;;;;;;;;;;4994913;28;20411;-42
2022/01/28 12:19:17;;;;;;;8.38;1.42;;;;;;;;;;5011781;28;20042;-42
2022/01/28 12:22:03;;;;;;;6.78;1.23;;;;;;;;;;5011820;28;20045;-42
2022/01/28 12:24:33;;;;;;;8.32;1.83;;;;;;;;;;5011347;28;20125;-42
2022/01/28 12:27:08;;;;;;;11.32;1.63;;;;;;;;;;5010148;28;20112;-42
2022/01/28 12:29:36;;;;;;;10.98;1.92;;;;;;;;;;5010965;28;20506;-42
2022/01/28 12:32:05;;;;;;;6.78;1.30;;;;;;;;;;5009915;28;20119;-42
2022/01/28 12:34:32;;;;;;;6.72;1.27;;;;;;;;;;5010723;28;20509;-41
2022/01/28 12:36:59;;;;;;;8.55;1.40;;;;;;;;;;5011759;28;20041;-41
2022/01/28 12:39:38;;;;;;;4.20;1.25;;;;;;;;;;5010267;28;20451;-42
2022/01/28 12:42:23;;;;;;;10.10;1.55;;;;;;;;;;5010843;28;20046;-42
2022/01/28 12:44:54;;;;;;;17.92;1.63;;;;;;;;;;5010928;28;20065;-42
2022/01/28 12:47:21;;;;;;;15.30;1.30;;;;;;;;;;5010917;28;20045;-42
2022/01/28 12:49:54;;;;;;;11.32;1.30;;;;;;;;;;5011089;28;20038;-41
2022/01/28 12:52:21;;;;;;;12.50;1.30;;;;;;;;;;5010352;28;20034;-42
2022/01/28 12:54:48;;;;;;;13.05;1.45;;;;;;;;;;5010750;28;20026;-42
2022/01/28 12:57:19;;;;;;;10.43;1.65;;;;;;;;;;5011060;28;20048;-41
2022/01/28 12:59:47;;;;;;;16.23;1.40;;;;;;;;;;5010356;28;20404;-42
2022/01/28 13:02:15;;;;;;;15.60;1.40;;;;;;;;;;5010839;28;20542;-42
2022/01/28 13:10:21;;;;;;;10.60;1.58;;;;;;;;;;5010514;28;20064;-42
2022/01/28 13:12:48;;;;;;;12.68;1.48;;;;;;;;;;5006819;28;20488;-42
2022/01/28 13:15:15;;;;;;;15.40;1.63;;;;;;;;;;5010764;28;20026;-42
2022/01/28 13:17:53;;;;;;;16.60;1.83;;;;;;;;;;5010286;28;20032;-42
2022/01/28 13:20:20;;;;;;;13.65;1.60;;;;;;;;;;5007075;28;20045;-42
2022/01/28 13:22:52;;;;;;;12.48;1.48;;;;;;;;;;5010654;28;20017;-42
2022/01/28 13:25:21;;;;;;;13.35;1.77;;;;;;;;;;5010417;28;20168;-42
2022/01/28 13:27:53;;;;;;;17.17;2.35;;;;;;;;;;5009863;28;20045;-42
2022/01/28 13:30:21;;;;;;;16.65;2.03;;;;;;;;;;5011564;28;20029;-42
2022/01/28 13:32:50;;;;;;;12.13;1.42;;;;;;;;;;5010460;28;20040;-42
2022/01/28 13:35:18;;;;;;;14.10;1.52;;;;;;;;;;5010659;28;20093;-42
2022/01/28 13:38:01;;;;;;;12.07;1.50;;;;;;;;;;5010805;28;20476;-42
2022/01/28 13:40:31;;;;;;;15.63;1.80;;;;;;;;;;5010810;28;20048;-42
2022/01/28 13:43:07;;;;;;;8.45;1.80;;;;;;;;;;5010058;28;20447;-42
2022/01/28 13:45:43;;;;;;;14.10;1.85;;;;;;;;;;5010595;28;20112;-42
2022/01/28 13:48:21;;;;;;;8.98;1.70;;;;;;;;;;5010939;28;20042;-42
2022/01/28 13:50:50;;;;;;;3.67;1.05;;;;;;;;;;5010119;28;20137;-44
2022/01/28 13:55:55;;;;;;;9.43;1.73;;;;;;;;;;5010047;28;20121;-43
2022/01/28 13:58:22;;;;;;;9.05;1.52;;;;;;;;;;5010789;28;20049;-42
2022/01/28 14:00:50;;;;;;;8.63;1.33;;;;;;;;;;5010054;28;20512;-42
2022/01/28 14:03:21;;;;;;;5.93;1.30;;;;;;;;;;5010364;28;20144;-44
2022/01/28 14:05:55;;;;;;;5.68;1.55;;;;;;;;;;5008516;28;20038;-42
2022/01/28 14:08:45;;;;;;;8.40;1.10;;;;;;;;;;5010188;28;20037;-42
2022/01/28 14:11:20;;;;;;;11.63;1.52;;;;;;;;;;5010116;28;20042;-42
2022/01/28 14:14:04;;;;;;;7.60;1.08;;;;;;;;;;5010518;28;20046;-42
2022/01/28 14:16:31;;;;;;;9.38;1.15;;;;;;;;;;5010791;28;20036;-42
2022/01/28 14:18:58;;;;;;;3.88;0.98;;;;;;;;;;5009988;28;20065;-42
2022/01/28 14:21:45;;;;;;;6.70;1.38;;;;;;;;;;5010356;28;20037;-42
2022/01/28 14:24:19;;;;;;;7.95;1.00;;;;;;;;;;5010368;28;20029;-42
2022/01/28 14:26:56;;;;;;;6.80;1.38;;;;;;;;;;5009519;28;20361;-43
2022/01/28 14:29:36;;;;;;;9.85;1.48;;;;;;;;;;4994882;28;20041;-42
2022/01/28 14:32:07;;;;;;;7.28;1.20;;;;;;;;;;5009355;28;20037;-45
2022/01/28 14:34:34;;;;;;;11.45;1.58;;;;;;;;;;5003987;28;20077;-44
2022/01/28 14:37:03;;;;;;;12.15;1.52;;;;;;;;;;5005708;28;20496;-44
2022/01/28 14:39:30;;;;;;;11.23;1.77;;;;;;;;;;5008988;28;20042;-44
2022/01/28 14:42:02;;;;;;;6.75;1.45;;;;;;;;;;5009371;28;20030;-46
2022/01/28 14:44:30;;;;;;;12.68;1.88;;;;;;;;;;5009694;28;20041;-45
2022/01/28 14:46:57;;;;;;;12.68;1.50;;;;;;;;;;5008889;28;20133;-44
2022/01/28 14:49:24;;;;;;;12.50;1.70;;;;;;;;;;5006985;28;20054;-45
2022/01/28 14:51:55;;;;;;;18.40;1.58;;;;;;;;;;5009955;28;20121;-45
2022/01/28 14:54:26;;;;;;;12.30;1.70;;;;;;;;;;5009245;28;20042;-45
2022/01/28 14:57:00;;;;;;;20.13;2.08;;;;;;;;;;5011533;28;20033;-44
2022/01/28 14:59:27;;;;;;;17.65;1.65;;;;;;;;;;5011966;28;20049;-43
2022/01/28 15:01:55;;;;;;;14.80;1.40;;;;;;;;;;5012755;28;20030;-44
2022/01/28 15:04:22;;;;;;;8.98;1.58;;;;;;;;;;5012921;28;20506;-44
2022/01/28 15:06:49;;;;;;;25.05;2.67;;;;;;;;;;5012525;28;20471;-45
2022/01/28 15:09:18;;;;;;;20.58;2.45;;;;;;;;;;5013008;28;20033;-46
2022/01/28 15:11:48;;;;;;;18.48;2.03;;;;;;;;;;5008258;28;20476;-46
2022/01/28 15:14:19;;;;;;;17.90;1.98;;;;;;;;;;5012386;28;20052;-45
2022/01/28 15:16:47;;;;;;;16.75;1.85;;;;;;;;;;5011612;28;20069;-44
2022/01/28 15:19:14;;;;;;;26.33;2.10;;;;;;;;;;5012655;28;20361;-44
2022/01/28 15:21:44;;;;;;;24.70;2.58;;;;;;;;;;5011995;28;20056;-44
2022/01/28 15:24:15;;;;;;;18.70;2.30;;;;;;;;;;5009689;28;20095;-43
2022/01/28 15:26:42;;;;;;;21.98;2.67;;;;;;;;;;5012870;28;20112;-43
2022/01/28 15:29:12;;;;;;;20.95;2.75;;;;;;;;;;5012502;28;20033;-43
2022/01/28 15:36:54;;;;;;;26.98;2.58;;;;;;;;;;5010169;28;20038;-41
2022/01/28 15:39:21;;;;;;;33.38;3.13;;;;;;;;;;5007543;28;20092;-41
2022/01/28 15:41:48;;;;;;;18.70;2.80;;;;;;;;;;5008509;28;20026;-43
2022/01/28 15:44:15;;;;;;;22.17;2.50;;;;;;;;;;5011621;28;20040;-41
2022/01/28 15:46:42;;;;;;;19.60;2.67;;;;;;;;;;5011999;28;20419;-41
2022/01/28 15:49:10;;;;;;;21.15;2.42;;;;;;;;;;5011614;28;20025;-43
2022/01/28 15:51:37;;;;;;;23.05;2.78;;;;;;;;;;5010377;28;20747;-43
2022/01/28 15:54:04;;;;;;;30.58;2.67;;;;;;;;;;5010751;28;20040;-43
2022/01/28 15:56:31;;;;;;;32.42;3.08;;;;;;;;;;5011125;28;20021;-43
2022/01/28 15:58:58;;;;;;;38.38;2.90;;;;;;;;;;5010958;28;20041;-44
2022/01/28 16:01:27;;;;;;;23.27;2.83;;;;;;;;;;5012694;28;20076;-43
2022/01/28 16:03:55;;;;;;;26.55;3.33;;;;;;;;;;5009939;28;20030;-44
2022/01/28 16:06:25;;;;;;;23.67;2.90;;;;;;;;;;5011448;28;20018;-44
2022/01/28 16:08:57;;;;;;;24.40;2.90;;;;;;;;;;5011356;28;20041;-43
2022/01/28 16:11:30;;;;;;;32.33;3.50;;;;;;;;;;5010805;28;20045;-45
2022/01/28 16:14:12;;;;;;;26.73;3.05;;;;;;;;;;5012025;28;20046;-44
2022/01/28 16:19:26;;;;;;;21.92;3.05;;;;;;;;;;5011667;28;20592;-41
2022/01/28 16:21:56;;;;;;;20.63;3.00;;;;;;;;;;5011360;28;20053;-43
2022/01/28 16:24:23;;;;;;;20.58;3.80;;;;;;;;;;5011461;28;20057;-43
2022/01/28 16:26:55;;;;;;;28.33;3.38;;;;;;;;;;5011551;28;20036;-43
2022/01/28 16:29:22;;;;;;;38.45;4.00;;;;;;;;;;5009705;28;20040;-43
2022/01/28 16:31:49;;;;;;;19.77;3.80;;;;;;;;;;5008808;28;20033;-44
2022/01/28 16:34:16;;;;;;;36.88;3.78;;;;;;;;;;5009759;28;20040;-43
2022/01/28 16:36:44;;;;;;;44.35;4.80;;;;;;;;;;5010487;28;20056;-43
2022/01/28 16:39:12;;;;;;;23.08;4.05;;;;;;;;;;5007357;28;20034;-43
2022/01/28 16:41:41;;;;;;;27.70;3.72;;;;;;;;;;5010253;28;20099;-43